Time;durP1;ratioP1;P1;durP2;ratioP2;P2;SDS_P1;SDS_P2;PMS_P1;PMS_P2;Temp;Humidity;BMP_temperature;BMP_pressure;BME280_temperature;BME280_humidity;BME280_pressure;Samples;Min_cycle;Max_cycle;Signal;HPM_P1;HPM_P2
2021/07/01 00:00:07;;;;;;;13.68;7.25;;;15.10;99.90;;;;;;5036417;28;20022;-69
2021/07/01 00:02:33;;;;;;;12.13;7.32;;;15.10;99.90;;;;;;5036241;28;20028;-69
2021/07/01 00:04:58;;;;;;;9.40;6.32;;;15.10;99.90;;;;;;5037080;28;20029;-69
2021/07/01 00:07:24;;;;;;;12.18;7.15;;;15.00;99.90;;;;;;5033911;28;20123;-69
2021/07/01 00:09:49;;;;;;;9.13;6.05;;;15.00;99.90;;;;;;5035598;28;20025;-69
2021/07/01 00:12:15;;;;;;;12.57;6.05;;;15.00;99.90;;;;;;5034159;28;20032;-69
2021/07/01 00:14:40;;;;;;;9.68;6.97;;;15.00;99.90;;;;;;5034014;28;20499;-69
2021/07/01 00:17:06;;;;;;;15.55;7.88;;;15.00;99.90;;;;;;5034608;28;20079;-70
2021/07/01 00:19:31;;;;;;;8.85;5.72;;;15.00;99.90;;;;;;5034242;28;20027;-69
2021/07/01 00:21:57;;;;;;;11.68;6.47;;;15.00;99.90;;;;;;5034450;28;20518;-69
2021/07/01 00:24:23;;;;;;;11.52;6.35;;;15.00;99.90;;;;;;5033465;28;20056;-69
2021/07/01 00:26:48;;;;;;;8.82;5.72;;;15.00;99.90;;;;;;5035850;28;20075;-69
2021/07/01 00:29:14;;;;;;;11.60;5.82;;;15.00;99.90;;;;;;5037617;28;20049;-69
2021/07/01 00:31:39;;;;;;;10.57;5.30;;;15.00;99.90;;;;;;5034986;28;20044;-69
2021/07/01 00:34:05;;;;;;;10.73;5.78;;;15.00;99.90;;;;;;5035797;28;20026;-69
2021/07/01 00:36:31;;;;;;;14.13;6.85;;;15.00;99.90;;;;;;5034120;28;20028;-69
2021/07/01 00:38:56;;;;;;;14.52;7.30;;;14.90;99.90;;;;;;5034175;28;20477;-69
2021/07/01 00:41:22;;;;;;;16.05;6.38;;;15.00;99.90;;;;;;5033143;28;20048;-69
2021/07/01 00:43:48;;;;;;;9.40;5.63;;;14.90;99.90;;;;;;5034259;28;20026;-69
2021/07/01 00:46:14;;;;;;;11.07;5.25;;;14.90;99.90;;;;;;5037406;28;20021;-70
2021/07/01 00:48:39;;;;;;;9.98;5.18;;;15.00;99.90;;;;;;5034609;28;20022;-69
2021/07/01 00:51:05;;;;;;;12.65;6.78;;;15.00;99.90;;;;;;5037126;28;20044;-69
2021/07/01 00:53:31;;;;;;;12.40;6.05;;;14.90;99.90;;;;;;5033059;28;20037;-69
2021/07/01 00:55:58;;;;;;;10.18;5.72;;;14.90;99.90;;;;;;5034173;28;20397;-69
2021/07/01 00:58:23;;;;;;;10.63;5.70;;;14.90;99.90;;;;;;5032983;28;20028;-69
2021/07/01 01:03:14;;;;;;;17.55;6.38;;;14.90;99.90;;;;;;5037288;28;20021;-69
2021/07/01 01:05:40;;;;;;;12.88;5.10;;;14.90;99.90;;;;;;5034387;28;20020;-70
2021/07/01 01:08:06;;;;;;;7.95;5.40;;;14.90;99.90;;;;;;5035336;28;20390;-69
2021/07/01 01:10:31;;;;;;;14.82;5.63;;;14.90;99.90;;;;;;5033580;28;20056;-70
2021/07/01 01:12:57;;;;;;;14.40;5.85;;;14.90;99.90;;;;;;5033647;28;20025;-69
2021/07/01 01:15:26;;;;;;;12.77;5.63;;;14.90;99.90;;;;;;5032219;28;20025;-70
2021/07/01 01:17:52;;;;;;;12.00;6.18;;;14.90;99.90;;;;;;5033356;28;20022;-70
2021/07/01 01:20:17;;;;;;;14.15;6.45;;;14.90;99.90;;;;;;5032177;28;20390;-69
2021/07/01 01:22:43;;;;;;;14.75;6.78;;;14.90;99.90;;;;;;5032104;28;20053;-69
2021/07/01 01:25:09;;;;;;;14.25;6.25;;;14.90;99.90;;;;;;5032010;28;20021;-69
2021/07/01 01:27:34;;;;;;;15.15;6.50;;;14.90;99.90;;;;;;5034803;28;20385;-69
2021/07/01 01:30:00;;;;;;;12.02;6.15;;;14.90;99.90;;;;;;5034562;28;20017;-69
2021/07/01 01:32:25;;;;;;;12.27;6.38;;;14.90;99.90;;;;;;5035742;28;20029;-69
2021/07/01 01:34:51;;;;;;;13.50;7.03;;;14.90;99.90;;;;;;5033501;28;20083;-69
2021/07/01 01:37:16;;;;;;;12.48;7.10;;;14.90;99.90;;;;;;5033987;28;20413;-69
2021/07/01 01:39:49;;;;;;;10.35;6.43;;;14.90;99.90;;;;;;5032707;28;20048;-69
2021/07/01 01:42:15;;;;;;;13.10;6.68;;;14.90;99.90;;;;;;5032514;28;20420;-69
2021/07/01 01:44:41;;;;;;;13.20;6.05;;;14.90;99.90;;;;;;5034752;28;20025;-69
2021/07/01 01:47:18;;;;;;;11.95;6.32;;;14.90;99.90;;;;;;5034323;28;20080;-69
2021/07/01 01:49:45;;;;;;;11.40;6.97;;;14.90;99.90;;;;;;5033545;28;20390;-69
2021/07/01 01:52:11;;;;;;;13.20;6.68;;;14.90;99.90;;;;;;5033461;28;20444;-69
2021/07/01 01:54:36;;;;;;;13.52;6.65;;;14.90;99.90;;;;;;5033879;28;20538;-69
2021/07/01 01:57:02;;;;;;;12.57;5.57;;;14.80;99.90;;;;;;5032665;28;20026;-69
2021/07/01 01:59:27;;;;;;;10.57;5.32;;;14.80;99.90;;;;;;5032173;28;20024;-69
2021/07/01 02:01:53;;;;;;;11.05;5.40;;;14.80;99.90;;;;;;5034449;28;20025;-69
2021/07/01 02:04:18;;;;;;;11.30;5.90;;;14.80;99.90;;;;;;5035050;28;20021;-69
2021/07/01 02:06:44;;;;;;;9.38;5.32;;;14.80;99.90;;;;;;5037878;28;20029;-69
2021/07/01 02:09:09;;;;;;;11.70;4.60;;;14.80;99.90;;;;;;5037421;28;20523;-69
2021/07/01 02:11:35;;;;;;;8.68;4.85;;;14.80;99.90;;;;;;5036557;28;20030;-69
2021/07/01 02:14:00;;;;;;;12.82;5.53;;;14.70;99.90;;;;;;5036262;28;20026;-69
2021/07/01 02:16:26;;;;;;;11.40;4.75;;;14.80;99.90;;;;;;5036176;28;20516;-69
2021/07/01 02:18:52;;;;;;;9.15;4.85;;;14.70;99.90;;;;;;5038238;28;20068;-69
2021/07/01 02:21:18;;;;;;;9.10;5.45;;;14.80;99.90;;;;;;5036107;28;20621;-69
2021/07/01 02:23:44;;;;;;;10.13;5.78;;;14.70;99.90;;;;;;5036487;28;20036;-69
2021/07/01 02:26:10;;;;;;;9.02;5.68;;;14.70;99.90;;;;;;5035551;28;20029;-69
2021/07/01 02:28:35;;;;;;;9.23;5.10;;;14.80;99.90;;;;;;5037497;28;20079;-69
2021/07/01 02:31:01;;;;;;;10.52;5.88;;;14.70;99.90;;;;;;5038982;28;20030;-69
2021/07/01 02:33:27;;;;;;;11.80;5.88;;;14.70;99.90;;;;;;5036933;28;20091;-69
2021/07/01 02:35:52;;;;;;;13.40;6.47;;;14.70;99.90;;;;;;5037777;28;20021;-69
2021/07/01 02:38:19;;;;;;;11.80;5.78;;;14.70;99.90;;;;;;5036347;28;20028;-69
2021/07/01 02:40:45;;;;;;;15.45;7.47;;;14.70;99.90;;;;;;5034997;28;20025;-69
2021/07/01 02:43:10;;;;;;;11.75;6.85;;;14.80;99.90;;;;;;5035301;28;20381;-69
2021/07/01 02:45:36;;;;;;;10.32;5.72;;;14.70;99.90;;;;;;5038553;28;20028;-69
2021/07/01 02:48:02;;;;;;;13.98;7.25;;;14.70;99.90;;;;;;5038639;28;20029;-69
2021/07/01 02:50:28;;;;;;;13.02;7.03;;;14.70;99.90;;;;;;5036548;28;20112;-69
2021/07/01 02:52:54;;;;;;;16.27;7.18;;;14.70;99.90;;;;;;5037726;28;20101;-69
2021/07/01 02:55:19;;;;;;;14.65;7.82;;;14.70;99.90;;;;;;5034674;28;20022;-69
2021/07/01 02:57:45;;;;;;;16.40;8.13;;;14.70;99.90;;;;;;5035960;28;20077;-69
2021/07/01 03:00:15;;;;;;;12.70;7.85;;;14.70;99.90;;;;;;5035058;28;20021;-69
2021/07/01 03:02:41;;;;;;;16.67;7.50;;;14.70;99.90;;;;;;5039016;28;20013;-69
2021/07/01 03:05:07;;;;;;;14.35;7.13;;;14.60;99.90;;;;;;5037838;28;20086;-69
2021/07/01 03:07:32;;;;;;;11.77;6.00;;;14.60;99.90;;;;;;5036312;28;20029;-69
2021/07/01 03:09:58;;;;;;;13.68;6.30;;;14.60;99.90;;;;;;5037469;28;20396;-69
2021/07/01 03:12:24;;;;;;;11.82;6.13;;;14.60;99.90;;;;;;5035985;28;20484;-69
2021/07/01 03:14:50;;;;;;;11.02;5.32;;;14.50;99.90;;;;;;5034123;28;20025;-69
2021/07/01 03:17:16;;;;;;;10.43;5.00;;;14.60;99.90;;;;;;5034246;28;20018;-70
2021/07/01 03:19:42;;;;;;;13.63;6.43;;;14.50;99.90;;;;;;5035612;28;20033;-69
2021/07/01 03:22:08;;;;;;;13.15;5.72;;;14.50;99.90;;;;;;5036051;28;20025;-69
2021/07/01 03:24:33;;;;;;;12.05;5.97;;;14.50;99.90;;;;;;5034979;28;20028;-69
2021/07/01 03:27:00;;;;;;;10.10;5.28;;;14.50;99.90;;;;;;5036155;28;20441;-69
2021/07/01 03:29:26;;;;;;;11.75;6.20;;;14.50;99.90;;;;;;5037639;28;20022;-70
2021/07/01 03:31:52;;;;;;;13.30;6.38;;;14.50;99.90;;;;;;5036277;28;20033;-69
2021/07/01 03:34:18;;;;;;;11.85;6.30;;;14.50;99.90;;;;;;5037547;28;20044;-70
2021/07/01 03:36:43;;;;;;;11.15;6.10;;;14.50;99.90;;;;;;5035517;28;20101;-69
2021/07/01 03:39:09;;;;;;;9.25;5.47;;;14.50;99.90;;;;;;5035680;28;20029;-70
2021/07/01 03:41:34;;;;;;;10.55;6.18;;;14.40;99.90;;;;;;5034579;28;20079;-70
2021/07/01 03:44:00;;;;;;;11.88;5.07;;;14.50;99.90;;;;;;5036023;28;20025;-70
2021/07/01 03:46:26;;;;;;;10.07;5.53;;;14.40;99.90;;;;;;5037332;28;20466;-69
2021/07/01 03:48:51;;;;;;;8.90;5.13;;;14.40;99.90;;;;;;5035803;28;20041;-70
2021/07/01 03:51:17;;;;;;;11.60;5.25;;;14.50;99.90;;;;;;5036961;28;20029;-70
2021/07/01 03:53:42;;;;;;;12.18;5.43;;;14.40;99.90;;;;;;5034908;28;20074;-69
2021/07/01 03:56:10;;;;;;;9.93;5.20;;;14.40;99.90;;;;;;5035520;28;20029;-70
2021/07/01 03:58:35;;;;;;;8.00;4.80;;;14.40;99.90;;;;;;5032994;28;20441;-69
2021/07/01 04:01:01;;;;;;;6.85;4.68;;;14.40;99.90;;;;;;5035741;28;20018;-69
2021/07/01 04:03:26;;;;;;;9.85;5.28;;;14.40;99.90;;;;;;5036846;28;20083;-70
2021/07/01 04:05:52;;;;;;;9.93;5.97;;;14.40;99.90;;;;;;5035753;28;20151;-70
2021/07/01 04:08:17;;;;;;;8.90;5.20;;;14.40;99.90;;;;;;5036888;28;20017;-70
2021/07/01 04:10:43;;;;;;;9.75;5.40;;;14.30;99.90;;;;;;5033622;28;20049;-69
2021/07/01 04:13:09;;;;;;;11.73;5.40;;;14.30;99.90;;;;;;5035477;28;20101;-69
2021/07/01 04:15:34;;;;;;;10.25;5.68;;;14.30;99.90;;;;;;5033685;28;20072;-70
2021/07/01 04:18:08;;;;;;;12.85;6.95;;;14.30;99.90;;;;;;5035508;28;20561;-69
2021/07/01 04:20:33;;;;;;;8.98;5.40;;;14.30;99.90;;;;;;5035566;28;20453;-69
2021/07/01 04:22:59;;;;;;;14.82;7.05;;;14.30;99.90;;;;;;5034054;28;20521;-70
2021/07/01 04:25:24;;;;;;;12.38;5.40;;;14.30;99.90;;;;;;5034104;28;20025;-69
2021/07/01 04:27:49;;;;;;;6.88;4.80;;;14.30;99.90;;;;;;5035851;28;20057;-69
2021/07/01 04:30:15;;;;;;;11.90;6.05;;;14.20;99.90;;;;;;5036029;28;20018;-69
2021/07/01 04:32:41;;;;;;;12.98;7.70;;;14.30;99.90;;;;;;5036630;28;20485;-69
2021/07/01 04:35:07;;;;;;;12.05;6.55;;;14.30;99.90;;;;;;5034792;28;21234;-69
2021/07/01 04:37:32;;;;;;;12.32;6.47;;;14.30;99.90;;;;;;5035510;28;20030;-70
2021/07/01 04:39:58;;;;;;;8.27;5.57;;;14.30;99.90;;;;;;5033783;28;20024;-70
2021/07/01 04:42:23;;;;;;;10.48;5.65;;;14.20;99.90;;;;;;5033779;28;20017;-69
2021/07/01 04:44:49;;;;;;;13.27;5.50;;;14.20;99.90;;;;;;5037054;28;20025;-69
2021/07/01 04:47:14;;;;;;;10.43;5.70;;;14.20;99.90;;;;;;5035731;28;20056;-69
2021/07/01 04:49:40;;;;;;;12.13;5.32;;;14.20;99.90;;;;;;5036484;28;20018;-69
2021/07/01 04:52:05;;;;;;;10.93;5.90;;;14.20;99.90;;;;;;5034472;28;20029;-69
2021/07/01 04:54:31;;;;;;;14.93;6.57;;;14.20;99.90;;;;;;5034855;28;20065;-69
2021/07/01 04:56:57;;;;;;;11.85;4.85;;;14.20;99.90;;;;;;5033671;28;20538;-69
2021/07/01 04:59:22;;;;;;;9.85;4.75;;;14.20;99.90;;;;;;5033482;28;20431;-70
2021/07/01 05:01:48;;;;;;;11.20;4.65;;;14.20;99.90;;;;;;5032534;28;20108;-69
2021/07/01 05:04:14;;;;;;;10.50;4.95;;;14.20;99.90;;;;;;5035419;28;20535;-69
2021/07/01 05:06:41;;;;;;;11.05;5.07;;;14.20;99.90;;;;;;5036178;28;20025;-69
2021/07/01 05:09:08;;;;;;;8.45;5.38;;;14.20;99.90;;;;;;5034145;28;20034;-69
2021/07/01 05:11:35;;;;;;;8.32;4.82;;;14.20;99.90;;;;;;5034884;28;20029;-69
2021/07/01 05:14:01;;;;;;;11.75;4.38;;;14.20;99.90;;;;;;5033135;28;20029;-70
2021/07/01 05:16:30;;;;;;;11.90;5.13;;;14.20;99.90;;;;;;5032670;28;20025;-69
2021/07/01 05:18:59;;;;;;;8.80;4.78;;;14.20;99.90;;;;;;5034655;28;20014;-69
2021/07/01 05:21:25;;;;;;;13.40;4.78;;;14.20;99.90;;;;;;5032818;28;20044;-69
2021/07/01 05:23:51;;;;;;;13.98;4.93;;;14.20;99.90;;;;;;5050599;28;20032;-70
2021/07/01 05:26:17;;;;;;;10.73;5.35;;;14.30;99.90;;;;;;5052291;28;20459;-70
2021/07/01 05:28:44;;;;;;;8.32;4.45;;;14.30;99.90;;;;;;5052404;28;20107;-70
2021/07/01 05:31:09;;;;;;;6.82;4.70;;;14.30;99.90;;;;;;5038872;28;20409;-70
2021/07/01 05:33:35;;;;;;;10.38;5.63;;;14.30;99.90;;;;;;5032505;28;20512;-70
2021/07/01 05:36:00;;;;;;;9.38;4.75;;;14.30;99.90;;;;;;5032285;28;20061;-70
2021/07/01 05:38:26;;;;;;;8.48;4.70;;;14.40;99.90;;;;;;5032943;28;20029;-70
2021/07/01 05:40:52;;;;;;;8.60;4.65;;;14.40;99.90;;;;;;5036948;28;20100;-70
2021/07/01 05:43:17;;;;;;;6.72;4.05;;;14.40;99.90;;;;;;5039374;28;20446;-70
2021/07/01 05:45:43;;;;;;;9.93;4.18;;;14.40;99.90;;;;;;5039432;28;20576;-70
2021/07/01 05:48:10;;;;;;;9.45;4.65;;;14.40;99.90;;;;;;5039494;28;20029;-70
2021/07/01 05:50:42;;;;;;;6.35;4.20;;;14.40;99.90;;;;;;5057562;28;20019;-70
2021/07/01 05:53:10;;;;;;;9.13;4.32;;;14.50;99.90;;;;;;5065719;28;20017;-70
2021/07/01 05:55:35;;;;;;;10.43;4.32;;;14.50;99.90;;;;;;5073212;28;20193;-70
2021/07/01 05:58:02;;;;;;;6.78;4.13;;;14.50;99.90;;;;;;5079438;28;20417;-70
2021/07/01 06:00:29;;;;;;;9.75;4.93;;;14.50;99.90;;;;;;5079363;28;20107;-70
2021/07/01 06:02:55;;;;;;;11.50;5.78;;;14.50;99.90;;;;;;5079291;28;20021;-70
2021/07/01 06:05:20;;;;;;;8.23;4.72;;;14.50;99.90;;;;;;5079412;28;20033;-70
2021/07/01 06:07:52;;;;;;;11.38;5.18;;;14.50;99.90;;;;;;5079231;28;20024;-70
2021/07/01 06:10:19;;;;;;;9.85;4.15;;;14.50;99.90;;;;;;5070346;28;20021;-70
2021/07/01 06:12:45;;;;;;;8.88;4.05;;;14.50;99.90;;;;;;5056190;28;20021;-70
2021/07/01 06:15:11;;;;;;;6.70;3.58;;;14.50;99.90;;;;;;5061766;28;20040;-70
2021/07/01 06:17:38;;;;;;;12.18;5.43;;;14.50;99.90;;;;;;5060577;28;20408;-70
2021/07/01 06:20:06;;;;;;;7.18;4.25;;;14.50;99.90;;;;;;5058829;28;20079;-70
2021/07/01 06:22:33;;;;;;;8.00;5.23;;;14.60;99.90;;;;;;5058653;28;20460;-70
2021/07/01 06:24:59;;;;;;;11.07;4.72;;;14.50;99.90;;;;;;5058643;28;20016;-70
2021/07/01 06:27:35;;;;;;;8.88;4.57;;;14.60;99.90;;;;;;5039010;28;20036;-70
2021/07/01 06:30:11;;;;;;;8.52;5.47;;;14.60;99.90;;;;;;5039231;28;20049;-70
2021/07/01 06:32:44;;;;;;;13.43;5.45;;;14.60;99.90;;;;;;5038998;28;20032;-70
2021/07/01 06:35:10;;;;;;;10.75;5.13;;;14.60;99.90;;;;;;5038947;28;20021;-70
2021/07/01 06:37:39;;;;;;;11.18;5.25;;;14.60;99.90;;;;;;5038926;28;20029;-70
2021/07/01 06:40:06;;;;;;;11.60;5.63;;;14.70;99.90;;;;;;5039005;28;20025;-70
2021/07/01 06:42:39;;;;;;;11.63;5.35;;;14.60;99.90;;;;;;5038732;28;20045;-69
2021/07/01 06:45:05;;;;;;;11.25;4.75;;;14.60;99.90;;;;;;5053756;28;20457;-69
2021/07/01 06:47:32;;;;;;;7.88;3.97;;;14.60;99.90;;;;;;5058639;28;20082;-69
2021/07/01 06:49:57;;;;;;;10.90;5.03;;;14.60;99.90;;;;;;5058831;28;20025;-69
2021/07/01 06:52:23;;;;;;;8.63;4.03;;;14.60;99.90;;;;;;5055300;28;20048;-69
2021/07/01 06:54:49;;;;;;;10.85;4.95;;;14.70;99.90;;;;;;5055563;28;20028;-69
2021/07/01 06:57:16;;;;;;;7.80;4.53;;;14.70;99.90;;;;;;5055485;28;20040;-69
2021/07/01 06:59:42;;;;;;;8.57;5.25;;;14.70;99.90;;;;;;5054226;28;20036;-69
2021/07/01 07:02:10;;;;;;;9.07;4.38;;;14.70;99.90;;;;;;5047954;28;20021;-68
2021/07/01 07:04:35;;;;;;;9.68;4.15;;;14.70;99.90;;;;;;5054239;28;20024;-68
2021/07/01 07:07:04;;;;;;;9.43;4.32;;;14.70;99.90;;;;;;5053630;28;20396;-68
2021/07/01 07:09:30;;;;;;;8.45;4.38;;;14.70;99.90;;;;;;5055656;28;20021;-69
2021/07/01 07:11:55;;;;;;;9.38;4.72;;;14.80;99.90;;;;;;5054971;28;20502;-69
2021/07/01 07:14:21;;;;;;;13.10;5.15;;;14.80;99.90;;;;;;5055235;28;20021;-70
2021/07/01 07:16:48;;;;;;;8.52;3.90;;;14.80;99.90;;;;;;5055012;28;20587;-69
2021/07/01 07:19:15;;;;;;;10.32;4.53;;;14.80;99.90;;;;;;5055108;28;20476;-69
2021/07/01 07:21:45;;;;;;;7.20;4.82;;;14.80;99.90;;;;;;5054654;28;20167;-69
2021/07/01 07:24:14;;;;;;;9.13;4.43;;;14.90;99.90;;;;;;5053830;28;20033;-70
2021/07/01 07:26:41;;;;;;;8.77;4.53;;;14.90;99.90;;;;;;5053737;28;20029;-71
2021/07/01 07:29:08;;;;;;;8.32;4.47;;;14.90;99.90;;;;;;5054856;28;20127;-70
2021/07/01 07:31:39;;;;;;;6.35;4.10;;;14.90;99.90;;;;;;5036932;28;20036;-70
2021/07/01 07:34:05;;;;;;;10.02;4.38;;;14.90;99.90;;;;;;5054781;28;20064;-70
2021/07/01 07:36:33;;;;;;;8.18;4.63;;;15.00;99.90;;;;;;5054775;28;20057;-70
2021/07/01 07:39:00;;;;;;;10.82;5.32;;;15.00;99.90;;;;;;5054875;28;20083;-70
2021/07/01 07:41:26;;;;;;;7.97;4.40;;;15.00;99.90;;;;;;5054708;28;20056;-69
2021/07/01 07:43:54;;;;;;;9.18;4.68;;;15.00;99.90;;;;;;5054270;28;20444;-69
2021/07/01 07:46:22;;;;;;;13.15;5.28;;;15.00;99.90;;;;;;5054604;28;20048;-69
2021/07/01 07:48:49;;;;;;;9.07;4.97;;;15.00;99.90;;;;;;5054726;28;20021;-70
2021/07/01 07:51:16;;;;;;;11.95;5.13;;;15.00;99.90;;;;;;5054465;28;20033;-70
2021/07/01 07:53:45;;;;;;;8.15;4.43;;;15.00;99.90;;;;;;5054254;28;20033;-70
2021/07/01 07:56:11;;;;;;;11.35;5.03;;;15.00;99.90;;;;;;5054418;28;20021;-70
2021/07/01 07:58:43;;;;;;;6.78;4.03;;;15.00;99.90;;;;;;5054275;28;20098;-70
2021/07/01 08:01:10;;;;;;;13.10;5.30;;;15.10;99.90;;;;;;5053286;28;20021;-70
2021/07/01 08:03:39;;;;;;;9.40;4.97;;;15.10;99.90;;;;;;5053927;28;20099;-70
2021/07/01 08:06:06;;;;;;;10.68;6.05;;;15.10;99.90;;;;;;5054251;28;20062;-70
2021/07/01 08:08:33;;;;;;;9.98;5.53;;;15.10;99.90;;;;;;5050929;28;20036;-70
2021/07/01 08:11:00;;;;;;;11.20;5.18;;;15.10;99.90;;;;;;5054301;28;20027;-70
2021/07/01 08:13:27;;;;;;;12.68;5.50;;;15.10;99.90;;;;;;5053753;28;20036;-70
2021/07/01 08:15:52;;;;;;;10.60;5.30;;;15.10;99.90;;;;;;5054005;28;20028;-70
2021/07/01 08:18:39;;;;;;;13.52;5.65;;;15.20;99.90;;;;;;5052842;28;20021;-70
2021/07/01 08:21:07;;;;;;;10.35;4.90;;;15.20;99.90;;;;;;5053842;28;20052;-70
2021/07/01 08:23:34;;;;;;;15.70;6.45;;;15.20;99.90;;;;;;5054029;28;20028;-71
2021/07/01 08:26:01;;;;;;;7.47;5.80;;;15.20;99.90;;;;;;5054768;28;20025;-71
2021/07/01 08:28:28;;;;;;;10.43;5.47;;;15.20;99.90;;;;;;5059977;28;20013;-71
2021/07/01 08:30:57;;;;;;;9.45;5.15;;;15.30;99.90;;;;;;5055558;28;20064;-71
2021/07/01 08:33:28;;;;;;;12.15;5.03;;;15.30;99.90;;;;;;5053372;28;20035;-71
2021/07/01 08:35:56;;;;;;;9.02;5.30;;;15.30;99.90;;;;;;5050750;28;20112;-70
2021/07/01 08:38:21;;;;;;;11.52;5.35;;;15.30;99.90;;;;;;5028813;28;20115;-71
2021/07/01 08:40:49;;;;;;;13.48;6.57;;;15.30;99.90;;;;;;5047771;28;20100;-71
2021/07/01 08:43:19;;;;;;;14.20;5.72;;;15.30;99.90;;;;;;5053432;28;20172;-71
2021/07/01 08:46:02;;;;;;;8.98;5.38;;;15.30;99.90;;;;;;5061078;28;20063;-71
2021/07/01 08:48:41;;;;;;;11.55;5.75;;;15.40;99.90;;;;;;5062131;28;21481;-71
2021/07/01 08:51:08;;;;;;;12.48;5.85;;;15.30;99.90;;;;;;5072267;28;20029;-71
2021/07/01 08:54:22;;;;;;;11.25;6.18;;;15.30;99.90;;;;;;5073113;28;20034;-71
2021/07/01 08:56:48;;;;;;;11.73;5.57;;;15.40;99.90;;;;;;5069523;28;20115;-71
2021/07/01 08:59:18;;;;;;;14.48;6.45;;;15.40;99.90;;;;;;5073101;28;20416;-71
2021/07/01 09:01:53;;;;;;;12.10;5.60;;;15.40;99.90;;;;;;5073336;28;20048;-72
2021/07/01 09:04:22;;;;;;;14.85;6.35;;;15.50;99.90;;;;;;5073246;28;20032;-71
2021/07/01 09:06:55;;;;;;;14.05;6.55;;;15.50;99.90;;;;;;5073085;28;20035;-71
2021/07/01 09:09:30;;;;;;;14.60;6.97;;;15.60;99.90;;;;;;5066712;28;20033;-71
2021/07/01 09:12:00;;;;;;;18.23;7.15;;;15.70;99.90;;;;;;5052518;28;20664;-71
2021/07/01 09:14:27;;;;;;;14.13;6.63;;;15.70;99.90;;;;;;5049837;28;20025;-71
2021/07/01 09:16:54;;;;;;;20.10;7.20;;;15.80;99.90;;;;;;5057709;28;20468;-71
2021/07/01 09:19:23;;;;;;;15.85;7.50;;;15.90;99.90;;;;;;5064846;28;20434;-71
2021/07/01 09:21:50;;;;;;;14.88;7.50;;;15.90;99.90;;;;;;5071554;28;20132;-70
2021/07/01 09:24:17;;;;;;;16.00;6.63;;;15.90;99.80;;;;;;5071716;28;20503;-70
2021/07/01 09:26:47;;;;;;;13.20;6.10;;;16.00;99.70;;;;;;5072958;28;20145;-72
2021/07/01 09:29:13;;;;;;;12.57;6.32;;;16.00;99.60;;;;;;5073039;28;20134;-71
2021/07/01 09:31:41;;;;;;;13.00;6.43;;;16.00;99.60;;;;;;5073144;28;20036;-71
2021/07/01 09:34:09;;;;;;;15.00;6.00;;;16.00;99.50;;;;;;5072718;28;20079;-71
2021/07/01 09:36:35;;;;;;;14.35;6.13;;;16.00;99.50;;;;;;5072858;28;20029;-71
2021/07/01 09:39:03;;;;;;;12.85;7.35;;;16.00;99.50;;;;;;5072904;28;20021;-72
2021/07/01 09:41:29;;;;;;;15.02;6.78;;;16.00;99.30;;;;;;5059260;28;20474;-71
2021/07/01 09:43:55;;;;;;;17.13;7.75;;;16.00;99.30;;;;;;5050983;28;20029;-71
2021/07/01 09:46:24;;;;;;;17.85;8.10;;;16.00;99.20;;;;;;5052588;28;20017;-71
2021/07/01 09:48:52;;;;;;;15.05;7.05;;;16.00;99.20;;;;;;5050970;28;20028;-71
2021/07/01 09:51:19;;;;;;;15.40;6.68;;;16.00;99.20;;;;;;5051052;28;20121;-72
2021/07/01 09:53:50;;;;;;;17.08;7.57;;;16.00;99.10;;;;;;5072445;28;20474;-72
2021/07/01 09:56:22;;;;;;;16.70;7.95;;;16.00;99.00;;;;;;5072706;28;20027;-71
2021/07/01 09:58:50;;;;;;;13.00;6.82;;;16.00;98.90;;;;;;5072625;28;20024;-71
2021/07/01 10:01:26;;;;;;;15.02;7.20;;;16.00;98.90;;;;;;5071307;28;20021;-71
2021/07/01 10:03:54;;;;;;;10.63;5.95;;;16.00;98.90;;;;;;5062120;28;20032;-71
2021/07/01 10:06:20;;;;;;;14.15;6.65;;;16.00;98.90;;;;;;5052594;28;20029;-71
2021/07/01 10:08:45;;;;;;;20.60;7.22;;;16.10;98.90;;;;;;5052450;28;20032;-71
2021/07/01 10:11:11;;;;;;;18.17;7.25;;;16.10;98.90;;;;;;5051606;28;20104;-71
2021/07/01 10:13:37;;;;;;;14.48;6.45;;;16.10;98.90;;;;;;5051408;28;20025;-71
2021/07/01 10:16:03;;;;;;;12.68;6.68;;;16.10;98.90;;;;;;5052023;28;20021;-71
2021/07/01 10:18:41;;;;;;;15.02;6.78;;;16.10;98.80;;;;;;5052263;28;20492;-71
2021/07/01 10:21:15;;;;;;;17.23;7.07;;;16.20;98.70;;;;;;5052381;28;20532;-71
2021/07/01 10:23:40;;;;;;;12.02;6.40;;;16.20;98.60;;;;;;5052296;28;20021;-71
2021/07/01 10:26:16;;;;;;;12.93;6.57;;;16.20;98.60;;;;;;5053111;28;20029;-71
2021/07/01 10:28:55;;;;;;;14.60;6.50;;;16.30;98.40;;;;;;5035912;28;20398;-70
2021/07/01 10:31:21;;;;;;;15.48;7.35;;;16.20;98.40;;;;;;5043322;28;20162;-71
2021/07/01 10:33:46;;;;;;;12.35;7.05;;;16.20;98.30;;;;;;5055847;28;20555;-71
2021/07/01 10:36:24;;;;;;;19.38;7.13;;;16.20;98.30;;;;;;5055932;28;20017;-71
2021/07/01 10:38:51;;;;;;;14.13;6.85;;;16.30;98.30;;;;;;5055483;28;20097;-71
2021/07/01 10:41:33;;;;;;;10.05;5.97;;;16.20;98.40;;;;;;5045559;28;20128;-69
2021/07/01 10:44:00;;;;;;;17.15;7.22;;;16.20;98.30;;;;;;5029523;28;20138;-70
2021/07/01 10:46:39;;;;;;;10.75;6.40;;;16.20;98.40;;;;;;5066707;28;20031;-71
2021/07/01 10:49:05;;;;;;;11.87;6.40;;;16.20;98.30;;;;;;5059725;28;20071;-71
2021/07/01 10:51:31;;;;;;;12.30;5.90;;;16.20;98.40;;;;;;5052586;28;20021;-71
2021/07/01 10:54:15;;;;;;;11.25;5.45;;;16.20;98.40;;;;;;5052296;28;20056;-71
2021/07/01 10:56:43;;;;;;;13.98;6.00;;;16.20;98.30;;;;;;5052905;28;20025;-71
2021/07/01 10:59:11;;;;;;;10.35;6.25;;;16.20;98.50;;;;;;5064857;28;20025;-71
2021/07/01 11:01:41;;;;;;;8.50;5.63;;;16.20;98.50;;;;;;5046785;28;20024;-71
2021/07/01 11:04:10;;;;;;;;;;;16.20;98.50;;;;;;5054223;28;20412;-71
2021/07/01 11:06:37;;;;;;;;;;;16.10;98.50;;;;;;5052266;28;19974;-71
2021/07/01 11:09:05;;;;;;;11.10;5.50;;;16.00;98.80;;;;;;5053313;28;19909;-71
2021/07/01 11:11:32;;;;;;;9.82;5.82;;;16.00;99.00;;;;;;5054664;28;20474;-71
2021/07/01 11:14:00;;;;;;;10.93;6.45;;;16.00;98.90;;;;;;5051752;28;20025;-71
2021/07/01 11:16:43;;;;;;;13.27;6.57;;;16.00;99.00;;;;;;5054592;28;20492;-71
2021/07/01 11:19:14;;;;;;;13.45;6.97;;;16.10;99.10;;;;;;5056093;28;20108;-71
2021/07/01 11:21:51;;;;;;;9.70;5.57;;;16.00;99.20;;;;;;5054079;28;20033;-71
2021/07/01 11:24:22;;;;;;;9.18;5.90;;;16.10;99.20;;;;;;5055940;28;20051;-71
2021/07/01 11:26:54;;;;;;;10.65;5.63;;;16.00;99.30;;;;;;5054655;28;20090;-71
2021/07/01 11:29:35;;;;;;;9.88;6.00;;;16.00;99.40;;;;;;5052227;28;20048;-71
2021/07/01 11:32:00;;;;;;;10.77;5.45;;;16.00;99.40;;;;;;5052371;28;20035;-71
2021/07/01 11:34:40;;;;;;;16.80;6.88;;;16.00;99.60;;;;;;5054213;28;20528;-71
2021/07/01 11:37:05;;;;;;;14.10;6.78;;;16.00;99.60;;;;;;5053079;28;20017;-71
2021/07/01 11:39:33;;;;;;;13.38;5.82;;;16.00;99.80;;;;;;5052257;28;20551;-71
2021/07/01 11:42:01;;;;;;;12.30;6.95;;;15.90;99.80;;;;;;5054974;28;20021;-71
2021/07/01 11:44:28;;;;;;;13.05;5.72;;;15.90;99.90;;;;;;5054080;28;20423;-70
2021/07/01 11:46:54;;;;;;;12.52;6.20;;;16.00;99.90;;;;;;5053065;28;20052;-71
2021/07/01 11:49:21;;;;;;;10.95;6.47;;;16.00;99.90;;;;;;5053917;28;20027;-71
2021/07/01 11:51:47;;;;;;;14.82;6.85;;;16.00;99.90;;;;;;5054113;28;20024;-71
2021/07/01 11:54:12;;;;;;;11.48;5.93;;;16.00;99.90;;;;;;5053821;28;20029;-71
2021/07/01 11:59:39;;;;;;;12.57;6.18;;;16.00;99.90;;;;;;4982257;28;20037;-71
2021/07/01 12:02:05;;;;;;;11.57;6.80;;;16.10;99.90;;;;;;5038280;28;20037;-71
2021/07/01 12:04:35;;;;;;;12.45;6.60;;;16.10;99.90;;;;;;5053576;28;20539;-71
2021/07/01 12:07:22;;;;;;;14.68;7.28;;;16.10;99.90;;;;;;5052602;28;20044;-70
2021/07/01 12:09:49;;;;;;;10.27;6.93;;;16.20;99.90;;;;;;5034165;28;20029;-72
2021/07/01 12:12:16;;;;;;;14.07;6.45;;;16.20;99.90;;;;;;5034324;28;20113;-72
2021/07/01 12:14:44;;;;;;;14.38;6.63;;;16.30;99.90;;;;;;5039183;28;20048;-72
2021/07/01 12:17:10;;;;;;;12.63;6.78;;;16.40;99.90;;;;;;5053930;28;20420;-72
2021/07/01 12:19:48;;;;;;;13.30;6.35;;;16.30;99.90;;;;;;5052632;28;20074;-71
2021/07/01 12:22:42;;;;;;;14.50;6.72;;;16.50;99.90;;;;;;5053849;28;20098;-72
2021/07/01 12:25:31;;;;;;;13.23;6.90;;;16.50;99.90;;;;;;5054153;28;20033;-71
2021/07/01 12:28:07;;;;;;;10.65;6.35;;;16.60;99.90;;;;;;5045687;28;20041;-71
2021/07/01 12:30:57;;;;;;;10.65;6.72;;;16.60;99.90;;;;;;5053942;28;20024;-71
2021/07/01 12:33:31;;;;;;;9.02;6.13;;;16.70;99.90;;;;;;5053843;28;20028;-71
2021/07/01 12:36:04;;;;;;;11.00;6.80;;;16.70;99.90;;;;;;5053753;28;20373;-72
2021/07/01 12:38:29;;;;;;;13.35;6.32;;;16.70;99.80;;;;;;5053785;28;20032;-71
2021/07/01 12:40:56;;;;;;;11.20;6.68;;;16.60;99.70;;;;;;5053624;28;20021;-72
2021/07/01 12:43:43;;;;;;;13.43;6.18;;;16.60;99.70;;;;;;5052548;28;20017;-71
2021/07/01 12:46:10;;;;;;;7.85;5.32;;;16.70;99.60;;;;;;5053216;28;20412;-72
2021/07/01 12:48:40;;;;;;;11.73;6.38;;;16.70;99.60;;;;;;5053602;28;20083;-71